createdAt,value
2019-02-06T00:00:26.722Z,0.00
2019-02-06T00:01:21.357Z,0.00
2019-02-06T00:02:20.340Z,0.00
2019-02-06T00:03:20.326Z,0.00
2019-02-06T00:04:20.313Z,0.00
2019-02-06T00:05:20.303Z,0.00
2019-02-06T00:06:20.288Z,0.00
2019-02-06T00:07:20.307Z,0.00
2019-02-06T00:08:20.270Z,0.00
2019-02-06T00:09:20.265Z,0.00
2019-02-06T00:10:20.251Z,0.00
2019-02-06T00:11:20.285Z,0.00
2019-02-06T00:12:20.241Z,0.00
2019-02-06T00:13:20.230Z,0.00
2019-02-06T00:14:20.203Z,0.00
2019-02-06T00:15:20.229Z,0.00
2019-02-06T00:16:20.187Z,0.00
2019-02-06T00:17:20.176Z,0.00
2019-02-06T00:18:20.211Z,0.00
2019-02-06T00:19:20.155Z,0.00
2019-02-06T00:20:20.138Z,0.00
2019-02-06T00:21:20.724Z,0.00
2019-02-06T00:22:20.121Z,0.00
2019-02-06T00:23:20.104Z,0.00
2019-02-06T00:24:20.109Z,0.00
2019-02-06T00:25:20.090Z,0.00
2019-02-06T00:26:20.173Z,0.00
2019-02-06T00:27:20.063Z,0.00
2019-02-06T00:28:20.059Z,0.00
2019-02-06T00:29:20.048Z,0.00
2019-02-06T00:30:20.041Z,0.00
2019-02-06T00:31:20.024Z,0.00
2019-02-06T00:32:20.113Z,0.00
2019-02-06T00:33:19.999Z,0.00
2019-02-06T00:34:19.993Z,0.00
2019-02-06T00:35:25.818Z,0.00
2019-02-06T00:36:20.976Z,0.00
2019-02-06T00:37:19.957Z,0.00
2019-02-06T00:38:19.951Z,0.00
2019-02-06T00:39:19.940Z,0.00
2019-02-06T00:40:19.987Z,0.00
2019-02-06T00:41:19.920Z,0.00
2019-02-06T00:42:19.903Z,0.00
2019-02-06T00:43:19.902Z,0.00
2019-02-06T00:44:19.885Z,0.00
2019-02-06T00:45:19.876Z,0.00
2019-02-06T00:46:19.869Z,0.00
2019-02-06T00:47:19.854Z,0.00
2019-02-06T00:48:19.839Z,0.00
2019-02-06T00:49:19.833Z,0.00
2019-02-06T00:50:19.817Z,0.00
2019-02-06T00:51:19.833Z,0.00
2019-02-06T00:52:19.798Z,0.00
2019-02-06T00:53:19.790Z,0.00
2019-02-06T00:54:19.783Z,0.00
2019-02-06T00:55:19.772Z,0.00
2019-02-06T00:56:19.752Z,0.00
2019-02-06T00:57:19.787Z,0.00
2019-02-06T00:58:19.732Z,0.00
2019-02-06T00:59:19.720Z,0.00
2019-02-06T01:00:19.711Z,0.00
2019-02-06T01:01:19.699Z,0.00
2019-02-06T01:02:19.689Z,0.00
2019-02-06T01:03:19.685Z,0.00
2019-02-06T01:04:19.667Z,0.00
2019-02-06T01:05:19.656Z,0.00
2019-02-06T01:06:19.651Z,0.00
2019-02-06T01:07:19.662Z,0.00
2019-02-06T01:08:19.630Z,0.00
2019-02-06T01:09:19.620Z,0.00
2019-02-06T01:10:19.605Z,0.00
2019-02-06T01:11:19.593Z,0.00
2019-02-06T01:12:19.588Z,0.00
2019-02-06T01:13:19.582Z,0.00
2019-02-06T01:14:19.561Z,0.00
2019-02-06T01:15:19.560Z,0.00
2019-02-06T01:16:19.539Z,0.00
2019-02-06T01:17:19.534Z,0.00
2019-02-06T01:18:19.560Z,0.00
2019-02-06T01:19:19.513Z,0.00
2019-02-06T01:20:19.502Z,0.00
2019-02-06T01:21:19.486Z,0.00
2019-02-06T01:22:19.480Z,0.00
2019-02-06T01:23:19.471Z,0.00
2019-02-06T01:24:19.472Z,0.00
2019-02-06T01:25:19.444Z,0.00
2019-02-06T01:26:19.433Z,0.00
2019-02-06T01:27:19.428Z,0.00
2019-02-06T01:28:19.419Z,0.00
2019-02-06T01:29:19.408Z,0.00
2019-02-06T01:30:19.392Z,0.00
2019-02-06T01:31:19.385Z,0.00
2019-02-06T01:32:19.374Z,0.00
2019-02-06T01:33:19.373Z,0.00
2019-02-06T01:34:19.385Z,0.00
2019-02-06T01:35:19.347Z,0.00
2019-02-06T01:36:19.330Z,0.00
2019-02-06T01:37:19.321Z,0.00
2019-02-06T01:38:19.310Z,0.00
2019-02-06T01:39:19.300Z,0.00
2019-02-06T01:40:19.298Z,0.00
2019-02-06T01:41:19.283Z,0.00
2019-02-06T01:42:19.272Z,0.00
2019-02-06T01:43:19.252Z,0.00
2019-02-06T01:44:19.240Z,0.00
2019-02-06T01:45:19.229Z,0.00
2019-02-06T01:46:19.234Z,0.00
2019-02-06T01:47:19.209Z,0.00
2019-02-06T01:48:19.204Z,0.00
2019-02-06T01:49:19.192Z,0.00
2019-02-06T01:50:19.189Z,0.00
2019-02-06T01:51:19.179Z,0.00
2019-02-06T01:52:19.161Z,0.00
2019-02-06T01:53:19.147Z,0.00
2019-02-06T01:54:19.138Z,0.00
2019-02-06T01:55:19.123Z,0.00
2019-02-06T01:56:19.112Z,0.00
2019-02-06T01:57:19.137Z,0.00
2019-02-06T01:58:19.095Z,0.00
2019-02-06T01:59:19.085Z,0.00
2019-02-06T02:00:19.070Z,0.00
2019-02-06T02:01:19.064Z,0.00
2019-02-06T02:02:19.051Z,0.00
2019-02-06T02:03:19.075Z,0.00
2019-02-06T02:04:19.033Z,0.00
2019-02-06T02:05:19.016Z,0.00
2019-02-06T02:06:19.006Z,0.00
2019-02-06T02:07:18.999Z,0.00
2019-02-06T02:08:19.006Z,0.00
2019-02-06T02:09:18.992Z,0.00
2019-02-06T02:10:18.962Z,0.00
2019-02-06T02:11:18.952Z,0.00
2019-02-06T02:12:18.943Z,0.00
2019-02-06T02:13:18.942Z,0.00
2019-02-06T02:14:18.928Z,0.00
2019-02-06T02:15:18.913Z,0.00
2019-02-06T02:16:18.897Z,0.00
2019-02-06T02:17:18.892Z,0.00
2019-02-06T02:18:18.876Z,0.00
2019-02-06T02:19:18.876Z,0.00
2019-02-06T02:20:18.855Z,0.00
2019-02-06T02:21:18.858Z,0.00
2019-02-06T02:22:18.840Z,0.00
2019-02-06T02:23:18.828Z,0.00
2019-02-06T02:24:18.864Z,0.00
2019-02-06T02:25:18.807Z,0.00
2019-02-06T02:26:18.791Z,0.00
2019-02-06T02:27:18.794Z,0.00
2019-02-06T02:28:18.774Z,0.00
2019-02-06T02:29:18.779Z,0.00
2019-02-06T02:30:18.757Z,0.00
2019-02-06T02:31:18.743Z,0.00
2019-02-06T02:32:18.729Z,0.00
2019-02-06T02:33:18.722Z,0.00
2019-02-06T02:34:18.713Z,0.00
2019-02-06T02:35:18.736Z,0.00
2019-02-06T02:36:18.690Z,0.00
2019-02-06T02:37:18.681Z,0.00
2019-02-06T02:38:18.672Z,0.00
2019-02-06T02:39:18.660Z,0.00
2019-02-06T02:40:18.644Z,0.00
2019-02-06T02:41:18.639Z,0.00
2019-02-06T02:42:18.629Z,0.00
2019-02-06T02:43:18.626Z,0.00
2019-02-06T02:44:18.607Z,0.00
2019-02-06T02:45:18.603Z,0.00
2019-02-06T02:46:18.594Z,0.00
2019-02-06T02:47:18.602Z,0.00
2019-02-06T02:48:18.558Z,0.00
2019-02-06T02:49:18.559Z,0.00
2019-02-06T02:50:18.544Z,0.00
2019-02-06T02:51:18.540Z,0.00
2019-02-06T02:52:18.553Z,0.00
2019-02-06T02:53:18.506Z,0.00
2019-02-06T02:54:18.500Z,0.00
2019-02-06T02:55:18.487Z,0.00
2019-02-06T02:56:18.480Z,0.00
2019-02-06T02:57:18.466Z,0.00
2019-02-06T02:58:18.461Z,0.00
2019-02-06T02:59:18.441Z,0.00
2019-02-06T03:00:18.437Z,0.00
2019-02-06T03:01:18.422Z,0.00
2019-02-06T03:02:18.410Z,0.00
2019-02-06T03:03:18.429Z,0.00
2019-02-06T03:04:18.392Z,0.00
2019-02-06T03:05:18.385Z,0.00
2019-02-06T03:06:27.628Z,0.00
2019-02-06T03:07:19.361Z,0.00
2019-02-06T03:08:18.349Z,0.00
2019-02-06T03:09:18.366Z,0.00
2019-02-06T03:10:18.331Z,0.00
2019-02-06T03:11:18.318Z,0.00
2019-02-06T03:12:18.303Z,0.00
2019-02-06T03:13:18.294Z,0.00
2019-02-06T03:14:18.284Z,0.00
2019-02-06T03:15:18.293Z,0.00
2019-02-06T03:16:18.260Z,0.00
2019-02-06T03:17:18.250Z,0.00
2019-02-06T03:18:18.239Z,0.00
2019-02-06T03:19:18.235Z,0.00
2019-02-06T03:20:18.264Z,0.00
2019-02-06T03:21:18.208Z,0.00
2019-02-06T03:22:18.204Z,0.00
2019-02-06T03:23:18.188Z,0.00
2019-02-06T03:24:18.183Z,0.00
2019-02-06T03:25:18.169Z,0.00
2019-02-06T03:26:18.165Z,0.00
2019-02-06T03:27:18.153Z,0.00
2019-02-06T03:28:18.134Z,0.00
2019-02-06T03:29:18.132Z,0.00
2019-02-06T03:30:18.138Z,0.00
2019-02-06T03:31:18.146Z,0.00
2019-02-06T03:32:18.102Z,0.00
2019-02-06T03:33:18.088Z,0.00
2019-02-06T03:34:18.080Z,0.00
2019-02-06T03:35:18.093Z,0.00
2019-02-06T03:36:18.053Z,0.00
2019-02-06T03:37:18.051Z,0.00
2019-02-06T03:38:18.124Z,0.00
2019-02-06T03:39:18.030Z,0.00
2019-02-06T03:40:18.007Z,0.00
2019-02-06T03:41:17.999Z,0.00
2019-02-06T03:42:17.992Z,0.00
2019-02-06T03:43:17.977Z,0.00
2019-02-06T03:44:17.962Z,0.00
2019-02-06T03:45:18.001Z,0.00
2019-02-06T03:46:17.943Z,0.00
2019-02-06T03:47:17.928Z,0.00
2019-02-06T03:48:20.510Z,0.00
2019-02-06T03:49:17.915Z,0.00
2019-02-06T03:50:17.903Z,0.00
2019-02-06T03:51:17.901Z,0.00
2019-02-06T03:52:17.879Z,0.00
2019-02-06T03:53:17.867Z,0.00
2019-02-06T03:54:17.863Z,0.00
2019-02-06T03:55:17.847Z,0.00
2019-02-06T03:56:17.835Z,0.00
2019-02-06T03:57:17.828Z,0.00
2019-02-06T03:58:17.812Z,0.00
2019-02-06T03:59:17.834Z,0.00
2019-02-06T04:00:17.868Z,0.00
2019-02-06T04:01:17.786Z,0.00
2019-02-06T04:02:17.774Z,0.00
2019-02-06T04:03:17.759Z,0.00
2019-02-06T04:04:17.751Z,0.00
2019-02-06T04:05:17.790Z,0.00
2019-02-06T04:06:17.732Z,0.00
2019-02-06T04:07:17.730Z,0.00
2019-02-06T04:08:17.709Z,0.00
2019-02-06T04:09:17.702Z,0.00
2019-02-06T04:10:17.684Z,0.00
2019-02-06T04:11:17.688Z,0.00
2019-02-06T04:12:17.671Z,0.00
2019-02-06T04:13:17.665Z,0.00
2019-02-06T04:14:17.648Z,0.00
2019-02-06T04:15:17.649Z,0.00
2019-02-06T04:16:17.662Z,0.00
2019-02-06T04:17:17.611Z,0.00
2019-02-06T04:18:17.611Z,0.00
2019-02-06T04:19:17.590Z,0.00
2019-02-06T04:20:17.583Z,0.00
2019-02-06T04:21:17.567Z,0.00
2019-02-06T04:22:17.566Z,0.00
2019-02-06T04:23:17.555Z,0.00
2019-02-06T04:24:17.541Z,0.00
2019-02-06T04:25:17.529Z,0.00
2019-02-06T04:26:17.515Z,0.00
2019-02-06T04:27:17.518Z,0.00
2019-02-06T04:28:17.499Z,0.00
2019-02-06T04:29:17.482Z,0.00
2019-02-06T04:30:17.483Z,0.00
2019-02-06T04:31:17.461Z,0.00
2019-02-06T04:32:17.451Z,0.00
2019-02-06T04:33:17.477Z,0.00
2019-02-06T04:34:17.435Z,0.00
2019-02-06T04:35:17.422Z,0.00
2019-02-06T04:36:17.412Z,0.00
2019-02-06T04:37:17.403Z,0.00
2019-02-06T04:38:17.391Z,0.00
2019-02-06T04:39:17.390Z,0.00
2019-02-06T04:40:17.373Z,0.00
2019-02-06T04:41:17.361Z,0.00
2019-02-06T04:42:17.351Z,0.00
2019-02-06T04:43:17.337Z,0.00
2019-02-06T04:44:17.340Z,0.00
2019-02-06T04:45:17.315Z,0.00
2019-02-06T04:46:17.310Z,0.00
2019-02-06T04:47:17.298Z,0.00
2019-02-06T04:48:17.280Z,0.00
2019-02-06T04:49:17.283Z,0.00
2019-02-06T04:50:17.260Z,0.00
2019-02-06T04:51:17.366Z,0.00
2019-02-06T04:52:17.241Z,0.00
2019-02-06T04:53:17.233Z,0.00
2019-02-06T04:54:17.249Z,0.00
2019-02-06T04:55:17.218Z,0.00
2019-02-06T04:56:17.202Z,0.00
2019-02-06T04:57:17.189Z,0.00
2019-02-06T04:58:17.176Z,0.00
2019-02-06T04:59:17.166Z,0.00
2019-02-06T05:00:17.169Z,0.00
2019-02-06T05:01:17.145Z,0.00
2019-02-06T05:02:17.133Z,0.00
2019-02-06T05:03:17.117Z,0.00
2019-02-06T05:04:17.109Z,0.00
2019-02-06T05:05:17.103Z,0.00
2019-02-06T05:06:17.093Z,0.00
2019-02-06T05:07:19.403Z,0.00
2019-02-06T05:08:17.066Z,0.00
2019-02-06T05:09:17.056Z,0.00
2019-02-06T05:10:17.048Z,0.00
2019-02-06T05:11:17.046Z,0.00
2019-02-06T05:12:17.026Z,0.00
2019-02-06T05:13:17.010Z,0.00
2019-02-06T05:14:17.006Z,0.00
2019-02-06T05:15:16.994Z,0.00
2019-02-06T05:16:17.046Z,0.00
2019-02-06T05:17:16.967Z,0.00
2019-02-06T05:18:16.958Z,0.00
2019-02-06T05:19:16.949Z,0.00
2019-02-06T05:20:16.936Z,0.00
2019-02-06T05:21:16.926Z,0.00
2019-02-06T05:22:16.937Z,0.00
2019-02-06T05:23:16.904Z,0.00
2019-02-06T05:24:16.893Z,0.00
2019-02-06T05:25:16.888Z,0.00
2019-02-06T05:26:16.871Z,0.00
2019-02-06T05:27:16.866Z,0.00
2019-02-06T05:28:18.259Z,0.00
2019-02-06T05:29:16.853Z,0.00
2019-02-06T05:30:16.839Z,0.00
2019-02-06T05:31:16.824Z,0.00
2019-02-06T05:32:16.813Z,0.00
2019-02-06T05:33:16.813Z,0.00
2019-02-06T05:34:16.791Z,0.00
2019-02-06T05:35:16.783Z,0.00
2019-02-06T05:36:16.775Z,0.00
2019-02-06T05:37:16.763Z,0.00
2019-02-06T05:38:16.761Z,0.00
2019-02-06T05:39:16.748Z,0.00
2019-02-06T05:40:16.735Z,0.00
2019-02-06T05:41:16.717Z,0.00
2019-02-06T05:42:16.710Z,0.00
2019-02-06T05:43:16.736Z,0.00
2019-02-06T05:44:16.686Z,0.00
2019-02-06T05:45:16.678Z,0.00
2019-02-06T05:46:16.668Z,0.00
2019-02-06T05:47:16.667Z,0.00
2019-02-06T05:48:16.648Z,0.00
2019-02-06T05:49:16.680Z,0.00
2019-02-06T05:50:16.654Z,0.00
2019-02-06T05:51:16.619Z,0.00
2019-02-06T05:52:16.718Z,0.00
2019-02-06T05:53:16.589Z,0.00
2019-02-06T05:54:16.580Z,0.00
2019-02-06T05:55:16.580Z,0.00
2019-02-06T05:56:16.567Z,0.00
2019-02-06T05:57:16.553Z,0.00
2019-02-06T05:58:16.554Z,0.00
2019-02-06T05:59:16.532Z,0.00
2019-02-06T06:00:16.535Z,0.00
2019-02-06T06:01:16.512Z,0.00
2019-02-06T06:02:16.495Z,0.00
2019-02-06T06:03:16.504Z,0.00
2019-02-06T06:04:16.478Z,0.00
2019-02-06T06:05:16.479Z,0.00
2019-02-06T06:06:16.457Z,0.00
2019-02-06T06:07:16.448Z,0.00
2019-02-06T06:08:16.438Z,4.00
2019-02-06T06:09:16.424Z,0.00
2019-02-06T06:10:16.426Z,0.00
2019-02-06T06:11:16.416Z,4.00
2019-02-06T06:12:16.390Z,4.00
2019-02-06T06:13:18.625Z,4.00
2019-02-06T06:14:16.379Z,4.00
2019-02-06T06:15:16.361Z,4.00
2019-02-06T06:16:16.359Z,4.00
2019-02-06T06:17:16.338Z,8.00
2019-02-06T06:18:16.332Z,8.00
2019-02-06T06:19:16.321Z,8.00
2019-02-06T06:20:16.306Z,12.00
2019-02-06T06:21:16.310Z,12.00
2019-02-06T06:22:16.299Z,16.00
2019-02-06T06:23:16.274Z,16.00
2019-02-06T06:24:16.284Z,24.00
2019-02-06T06:25:16.266Z,28.00
2019-02-06T06:26:16.246Z,28.00
2019-02-06T06:27:16.242Z,32.00
2019-02-06T06:28:16.235Z,36.00
2019-02-06T06:29:16.215Z,40.00
2019-02-06T06:30:16.205Z,48.00
2019-02-06T06:31:16.192Z,52.00
2019-02-06T06:32:16.181Z,60.00
2019-02-06T06:33:16.211Z,64.00
2019-02-06T06:34:16.159Z,72.00
2019-02-06T06:35:16.147Z,80.00
2019-02-06T06:36:16.142Z,88.00
2019-02-06T06:37:16.134Z,96.00
2019-02-06T06:38:16.119Z,108.00
2019-02-06T06:39:16.159Z,116.00
2019-02-06T06:40:16.102Z,128.00
2019-02-06T06:41:16.090Z,136.00
2019-02-06T06:42:16.081Z,144.00
2019-02-06T06:43:16.598Z,160.00
2019-02-06T06:44:16.066Z,168.00
2019-02-06T06:45:16.050Z,180.00
2019-02-06T06:46:16.038Z,196.00
2019-02-06T06:47:16.022Z,208.00
2019-02-06T06:48:16.014Z,224.00
2019-02-06T06:49:15.998Z,236.00
2019-02-06T06:50:16.001Z,252.00
2019-02-06T06:51:15.983Z,268.00
2019-02-06T06:52:15.972Z,288.00
2019-02-06T06:53:15.956Z,304.00
2019-02-06T06:54:15.946Z,320.00
2019-02-06T06:55:15.976Z,340.00
2019-02-06T06:56:15.926Z,356.00
2019-02-06T06:57:15.916Z,376.00
2019-02-06T06:58:15.905Z,396.00
2019-02-06T06:59:15.895Z,416.00
2019-02-06T07:00:15.881Z,440.00
2019-02-06T07:01:15.880Z,456.00
2019-02-06T07:02:15.866Z,476.00
2019-02-06T07:03:15.859Z,500.00
2019-02-06T07:04:15.840Z,528.00
2019-02-06T07:05:15.828Z,548.00
2019-02-06T07:06:15.832Z,588.00
2019-02-06T07:07:15.807Z,620.00
2019-02-06T07:08:15.801Z,652.00
2019-02-06T07:09:15.786Z,704.00
2019-02-06T07:10:15.775Z,756.00
2019-02-06T07:11:15.769Z,816.00
2019-02-06T07:12:15.772Z,904.00
2019-02-06T07:13:15.749Z,1004.00
2019-02-06T07:14:15.736Z,1116.00
2019-02-06T07:15:15.723Z,1184.00
2019-02-06T07:16:15.718Z,1240.00
2019-02-06T07:17:15.709Z,1296.00
2019-02-06T07:18:15.701Z,1404.00
2019-02-06T07:19:15.679Z,1504.00
2019-02-06T07:20:15.676Z,1576.00
2019-02-06T07:21:15.659Z,1652.00
2019-02-06T07:22:15.662Z,1740.00
2019-02-06T07:23:15.657Z,1812.00
2019-02-06T07:24:15.628Z,1872.00
2019-02-06T07:25:15.622Z,1872.00
2019-02-06T07:26:15.610Z,1932.00
2019-02-06T07:27:15.604Z,1996.00
2019-02-06T07:28:15.599Z,2056.00
2019-02-06T07:29:15.578Z,2048.00
2019-02-06T07:30:15.565Z,2064.00
2019-02-06T07:31:15.559Z,2072.00
2019-02-06T07:32:15.547Z,2084.00
2019-02-06T07:33:15.547Z,2092.00
2019-02-06T07:34:15.527Z,2080.00
2019-02-06T07:35:15.518Z,2104.00
2019-02-06T07:36:15.515Z,2084.00
2019-02-06T07:37:15.490Z,2052.00
2019-02-06T07:38:23.941Z,1964.00
2019-02-06T07:39:16.468Z,1864.00
2019-02-06T07:40:15.463Z,1668.00
2019-02-06T07:41:15.552Z,1528.00
2019-02-06T07:42:15.439Z,1532.00
2019-02-06T07:43:15.433Z,1560.00
2019-02-06T07:44:15.428Z,1556.00
2019-02-06T07:45:15.406Z,1596.00
2019-02-06T07:46:15.399Z,1640.00
2019-02-06T07:47:15.386Z,1720.00
2019-02-06T07:48:15.380Z,1828.00
2019-02-06T07:49:15.369Z,1904.00
2019-02-06T07:50:15.361Z,1988.00
2019-02-06T07:51:15.340Z,2044.00
2019-02-06T07:52:15.332Z,2152.00
2019-02-06T07:53:15.320Z,2184.00
2019-02-06T07:54:15.332Z,2300.00
2019-02-06T07:55:15.306Z,2716.00
2019-02-06T07:56:15.299Z,2984.00
2019-02-06T07:57:15.278Z,4848.00
2019-02-06T07:58:15.266Z,4476.00
2019-02-06T07:59:15.300Z,3488.00
2019-02-06T08:00:15.248Z,3216.00
2019-02-06T08:01:15.239Z,3456.00
2019-02-06T08:02:15.224Z,3632.00
2019-02-06T08:03:15.213Z,4244.00
2019-02-06T08:04:15.207Z,5520.00
2019-02-06T08:05:15.201Z,5004.00
2019-02-06T08:06:15.180Z,4608.00
2019-02-06T08:07:15.176Z,4796.00
2019-02-06T08:08:15.171Z,5136.00
2019-02-06T08:09:15.156Z,5424.00
2019-02-06T08:10:15.144Z,4136.00
2019-02-06T08:11:15.134Z,4480.00
2019-02-06T08:12:15.126Z,4440.00
2019-02-06T08:13:15.110Z,3764.00
2019-02-06T08:14:15.134Z,3884.00
2019-02-06T08:15:15.091Z,4160.00
2019-02-06T08:16:15.073Z,4776.00
2019-02-06T08:17:15.070Z,5336.00
2019-02-06T08:18:15.059Z,5468.00
2019-02-06T08:19:15.049Z,5288.00
2019-02-06T08:20:15.073Z,3940.00
2019-02-06T08:21:15.020Z,4176.00
2019-02-06T08:22:15.010Z,4164.00
2019-02-06T08:23:15.006Z,3296.00
2019-02-06T08:24:14.994Z,3532.00
2019-02-06T08:25:14.982Z,3532.00
2019-02-06T08:26:15.018Z,3300.00
2019-02-06T08:27:14.966Z,3216.00
2019-02-06T08:28:14.951Z,3436.00
2019-02-06T08:29:14.941Z,3768.00
2019-02-06T08:30:14.932Z,4556.00
2019-02-06T08:31:14.916Z,5112.00
2019-02-06T08:32:14.911Z,5228.00
2019-02-06T08:33:14.937Z,5104.00
2019-02-06T08:34:14.886Z,5028.00
2019-02-06T08:35:14.876Z,5132.00
2019-02-06T08:36:14.873Z,5332.00
2019-02-06T08:37:14.851Z,5372.00
2019-02-06T08:38:14.839Z,5132.00
2019-02-06T08:39:14.842Z,5068.00
2019-02-06T08:40:14.818Z,4828.00
2019-02-06T08:41:14.815Z,4972.00
2019-02-06T08:42:14.802Z,4372.00
2019-02-06T08:43:14.793Z,3888.00
2019-02-06T08:44:14.789Z,4072.00
2019-02-06T08:45:14.763Z,4012.00
2019-02-06T08:46:14.761Z,4240.00
2019-02-06T08:47:14.745Z,4236.00
2019-02-06T08:48:14.729Z,4800.00
2019-02-06T08:49:14.734Z,5124.00
2019-02-06T08:50:14.709Z,5500.00
2019-02-06T08:51:14.705Z,5992.00
2019-02-06T08:52:14.689Z,6644.00
2019-02-06T08:53:14.686Z,6308.00
2019-02-06T08:54:14.705Z,6916.00
2019-02-06T08:55:14.657Z,7064.00
2019-02-06T08:56:14.647Z,7028.00
2019-02-06T08:57:14.635Z,6784.00
2019-02-06T08:58:14.630Z,6764.00
2019-02-06T08:59:14.619Z,7884.00
2019-02-06T09:00:14.623Z,8596.00
2019-02-06T09:01:14.592Z,9632.00
2019-02-06T09:02:14.602Z,10360.00
2019-02-06T09:03:14.574Z,9928.00
2019-02-06T09:04:14.565Z,11200.00
2019-02-06T09:05:14.554Z,10748.00
2019-02-06T09:06:14.580Z,10204.00
2019-02-06T09:07:14.528Z,12796.00
2019-02-06T09:08:14.521Z,13460.00
2019-02-06T09:09:14.513Z,13788.00
2019-02-06T09:10:14.496Z,13084.00
2019-02-06T09:11:14.486Z,12360.00
2019-02-06T09:12:14.491Z,11176.00
2019-02-06T09:13:14.469Z,12988.00
2019-02-06T09:14:14.460Z,13728.00
2019-02-06T09:15:14.461Z,12932.00
2019-02-06T09:16:14.451Z,12484.00
2019-02-06T09:17:14.419Z,11980.00
2019-02-06T09:18:14.409Z,12780.00
2019-02-06T09:19:14.398Z,13708.00
2019-02-06T09:20:14.386Z,14672.00
2019-02-06T09:21:14.377Z,14928.00
2019-02-06T09:22:14.377Z,13928.00
2019-02-06T09:23:14.360Z,12108.00
2019-02-06T09:24:14.350Z,10396.00
2019-02-06T09:25:14.339Z,9584.00
2019-02-06T09:26:14.322Z,10600.00
2019-02-06T09:27:14.333Z,11720.00
2019-02-06T09:28:14.310Z,13008.00
2019-02-06T09:29:14.303Z,13012.00
2019-02-06T09:30:14.285Z,10884.00
2019-02-06T09:31:14.269Z,11288.00
2019-02-06T09:32:14.258Z,9800.00
2019-02-06T09:33:14.262Z,7688.00
2019-02-06T09:34:14.237Z,7672.00
2019-02-06T09:35:14.237Z,8520.00
2019-02-06T09:36:14.221Z,8064.00
2019-02-06T09:37:14.210Z,11244.00
2019-02-06T09:38:14.199Z,11612.00
2019-02-06T09:39:14.193Z,10816.00
2019-02-06T09:40:14.172Z,11516.00
2019-02-06T09:41:14.161Z,10908.00
2019-02-06T09:42:14.158Z,9732.00
2019-02-06T09:43:14.147Z,9484.00
2019-02-06T09:44:14.177Z,9708.00
2019-02-06T09:45:14.126Z,9084.00
2019-02-06T09:46:14.115Z,9248.00
2019-02-06T09:47:14.105Z,11396.00
2019-02-06T09:48:14.091Z,11152.00
2019-02-06T09:49:15.137Z,14308.00
2019-02-06T09:50:14.078Z,18656.00
2019-02-06T09:51:14.057Z,17696.00
2019-02-06T09:52:14.043Z,13488.00
2019-02-06T09:53:14.038Z,8988.00
2019-02-06T09:54:14.025Z,10148.00
2019-02-06T09:55:14.037Z,16800.00
2019-02-06T09:56:14.000Z,19488.00
2019-02-06T09:57:13.987Z,13640.00
2019-02-06T09:58:13.985Z,10840.00
2019-02-06T09:59:13.967Z,11824.00
2019-02-06T10:00:13.958Z,11784.00
2019-02-06T10:01:13.951Z,11772.00
2019-02-06T10:02:13.937Z,10292.00
2019-02-06T10:03:13.927Z,9600.00
2019-02-06T10:04:13.912Z,8160.00
2019-02-06T10:05:13.908Z,8268.00
2019-02-06T10:06:13.925Z,9788.00
2019-02-06T10:07:13.882Z,11940.00
2019-02-06T10:08:13.867Z,10020.00
2019-02-06T10:09:22.690Z,8120.00
2019-02-06T10:10:14.849Z,7860.00
2019-02-06T10:11:13.836Z,8156.00
2019-02-06T10:12:13.840Z,8344.00
2019-02-06T10:13:16.476Z,7812.00
2019-02-06T10:14:13.803Z,7344.00
2019-02-06T10:15:13.795Z,7988.00
2019-02-06T10:16:13.807Z,7972.00
2019-02-06T10:17:13.776Z,8116.00
2019-02-06T10:18:13.766Z,8888.00
2019-02-06T10:19:13.752Z,9104.00
2019-02-06T10:20:13.740Z,8876.00
2019-02-06T10:21:13.730Z,8824.00
2019-02-06T10:22:13.723Z,9020.00
2019-02-06T10:23:20.758Z,8264.00
2019-02-06T10:24:13.703Z,7908.00
2019-02-06T10:25:13.688Z,7756.00
2019-02-06T10:26:13.678Z,7512.00
2019-02-06T10:27:13.667Z,7800.00
2019-02-06T10:28:13.658Z,7952.00
2019-02-06T10:29:13.639Z,8776.00
2019-02-06T10:30:13.635Z,9352.00
2019-02-06T10:31:13.622Z,9180.00
2019-02-06T10:32:13.613Z,9260.00
2019-02-06T10:33:13.607Z,10976.00
2019-02-06T10:34:13.594Z,8976.00
2019-02-06T10:35:13.577Z,8476.00
2019-02-06T10:36:13.569Z,8724.00
2019-02-06T10:37:13.560Z,8236.00
2019-02-06T10:38:13.565Z,8072.00
2019-02-06T10:39:13.542Z,8236.00
2019-02-06T10:40:13.524Z,8448.00
2019-02-06T10:41:13.507Z,9308.00
2019-02-06T10:42:13.497Z,9576.00
2019-02-06T10:43:13.492Z,16048.00
2019-02-06T10:44:13.518Z,19232.00
2019-02-06T10:45:13.469Z,16544.00
2019-02-06T10:46:13.453Z,11880.00
2019-02-06T10:47:13.447Z,13264.00
2019-02-06T10:48:13.438Z,14220.00
2019-02-06T10:49:13.422Z,18688.00
2019-02-06T10:50:13.439Z,30208.00
2019-02-06T10:51:13.399Z,29920.00
2019-02-06T10:52:13.388Z,34144.00
2019-02-06T10:53:13.388Z,31520.00
2019-02-06T10:54:14.665Z,25280.00
2019-02-06T10:55:13.355Z,19936.00
2019-02-06T10:56:13.358Z,21568.00
2019-02-06T10:57:13.343Z,21088.00
2019-02-06T10:58:13.324Z,21760.00
2019-02-06T10:59:13.312Z,20192.00
2019-02-06T11:00:13.301Z,21696.00
2019-02-06T11:01:13.312Z,24576.00
2019-02-06T11:02:13.289Z,22624.00
2019-02-06T11:03:13.269Z,17920.00
2019-02-06T11:04:13.267Z,11108.00
2019-02-06T11:05:13.245Z,9228.00
2019-02-06T11:06:13.247Z,12008.00
2019-02-06T11:07:13.227Z,16768.00
2019-02-06T11:08:13.220Z,14296.00
2019-02-06T11:09:13.206Z,13564.00
2019-02-06T11:10:13.192Z,12600.00
2019-02-06T11:11:13.198Z,12040.00
2019-02-06T11:12:13.173Z,14520.00
2019-02-06T11:13:13.179Z,13004.00
2019-02-06T11:14:13.154Z,14468.00
2019-02-06T11:15:13.137Z,16608.00
2019-02-06T11:16:13.133Z,18144.00
2019-02-06T11:17:13.119Z,20768.00
2019-02-06T11:18:13.157Z,27808.00
2019-02-06T11:19:13.095Z,29216.00
2019-02-06T11:20:13.085Z,30400.00
2019-02-06T11:21:13.089Z,30944.00
2019-02-06T11:22:13.069Z,30400.00
2019-02-06T11:23:13.066Z,32512.00
2019-02-06T11:24:13.050Z,23488.00
2019-02-06T11:25:13.028Z,32608.00
2019-02-06T11:26:13.025Z,26912.00
2019-02-06T11:27:13.013Z,32608.00
2019-02-06T11:28:13.012Z,23872.00
2019-02-06T11:29:12.996Z,18592.00
2019-02-06T11:30:12.974Z,12824.00
2019-02-06T11:31:12.970Z,14280.00
2019-02-06T11:32:12.958Z,17568.00
2019-02-06T11:33:12.946Z,13844.00
2019-02-06T11:34:12.960Z,15144.00
2019-02-06T11:35:12.924Z,19808.00
2019-02-06T11:36:23.543Z,15224.00
2019-02-06T11:37:13.901Z,16224.00
2019-02-06T11:38:12.903Z,21216.00
2019-02-06T11:39:12.876Z,17280.00
2019-02-06T11:40:15.270Z,12404.00
2019-02-06T11:41:12.862Z,12564.00
2019-02-06T11:42:12.849Z,12568.00
2019-02-06T11:43:12.839Z,13348.00
2019-02-06T11:44:12.825Z,13288.00
2019-02-06T11:45:12.821Z,18368.00
2019-02-06T11:46:12.802Z,14632.00
2019-02-06T11:47:12.806Z,10124.00
2019-02-06T11:48:12.810Z,9416.00
2019-02-06T11:49:12.802Z,8960.00
2019-02-06T11:50:12.789Z,8244.00
2019-02-06T11:51:12.778Z,7500.00
2019-02-06T11:52:12.741Z,7260.00
2019-02-06T11:53:12.727Z,7212.00
2019-02-06T11:54:12.714Z,7292.00
2019-02-06T11:55:12.817Z,7696.00
2019-02-06T11:56:12.708Z,7872.00
2019-02-06T11:57:12.687Z,8244.00
2019-02-06T11:58:12.692Z,7952.00
2019-02-06T11:59:12.664Z,7928.00
2019-02-06T12:00:12.655Z,8068.00
2019-02-06T12:01:12.651Z,8168.00
2019-02-06T12:02:12.627Z,8036.00
2019-02-06T12:03:12.621Z,8168.00
2019-02-06T12:04:12.611Z,8076.00
2019-02-06T12:05:12.600Z,7672.00
2019-02-06T12:06:12.620Z,7472.00
2019-02-06T12:07:12.577Z,7556.00
2019-02-06T12:08:12.901Z,7444.00
2019-02-06T12:09:12.555Z,7224.00
2019-02-06T12:10:12.540Z,7244.00
2019-02-06T12:11:12.536Z,8272.00
2019-02-06T12:12:12.527Z,8604.00
2019-02-06T12:13:12.507Z,10056.00
2019-02-06T12:14:12.503Z,12740.00
2019-02-06T12:15:12.486Z,16608.00
2019-02-06T12:16:12.528Z,16640.00
2019-02-06T12:17:12.594Z,19616.00
2019-02-06T12:18:12.453Z,24992.00
2019-02-06T12:19:12.444Z,28768.00
2019-02-06T12:20:12.433Z,28480.00
2019-02-06T12:21:12.430Z,28288.00
2019-02-06T12:22:12.411Z,26816.00
2019-02-06T12:23:12.412Z,23744.00
2019-02-06T12:24:12.387Z,17984.00
2019-02-06T12:25:12.384Z,19424.00
2019-02-06T12:26:12.365Z,21440.00
2019-02-06T12:27:12.360Z,25280.00
2019-02-06T12:28:12.399Z,23360.00
2019-02-06T12:29:12.341Z,19072.00
2019-02-06T12:30:12.322Z,16480.00
2019-02-06T12:31:12.317Z,14852.00
2019-02-06T12:32:12.311Z,20736.00
2019-02-06T12:33:12.289Z,20864.00
2019-02-06T12:34:12.292Z,21152.00
2019-02-06T12:35:12.274Z,18944.00
2019-02-06T12:36:12.257Z,18784.00
2019-02-06T12:37:12.247Z,17376.00
2019-02-06T12:38:12.239Z,17184.00